createdAt,value
2022-10-09T00:02:01.038Z,93.10
2022-10-09T00:04:28.960Z,93.04
2022-10-09T00:06:56.784Z,93.34
2022-10-09T00:09:24.743Z,93.10
2022-10-09T00:11:52.471Z,93.36
2022-10-09T00:14:21.586Z,93.31
2022-10-09T00:16:49.457Z,93.45
2022-10-09T00:19:17.230Z,93.31
2022-10-09T00:21:48.252Z,93.34
2022-10-09T00:24:16.048Z,93.50
2022-10-09T00:26:43.830Z,93.29
2022-10-09T00:29:11.829Z,93.15
2022-10-09T00:31:40.974Z,93.51
2022-10-09T00:34:08.768Z,93.30
2022-10-09T00:36:36.574Z,93.62
2022-10-09T00:39:04.514Z,93.49
2022-10-09T00:41:33.827Z,93.58
2022-10-09T00:44:02.476Z,93.74
2022-10-09T00:46:34.703Z,93.66
2022-10-09T00:49:16.117Z,93.80
2022-10-09T00:51:44.981Z,93.73
2022-10-09T00:54:14.665Z,93.89
2022-10-09T00:56:42.764Z,93.96
2022-10-09T00:59:11.506Z,93.64
2022-10-09T01:01:40.387Z,93.83
2022-10-09T01:04:08.442Z,93.81
2022-10-09T01:06:43.297Z,93.91
2022-10-09T01:09:14.476Z,93.85
2022-10-09T01:11:48.666Z,93.85
2022-10-09T01:14:21.126Z,93.79
2022-10-09T01:16:52.934Z,94.00
2022-10-09T01:19:28.571Z,94.05
2022-10-09T01:22:05.429Z,94.10
2022-10-09T01:24:38.635Z,94.10
2022-10-09T01:27:10.859Z,94.25
2022-10-09T01:29:41.610Z,94.45
2022-10-09T01:32:12.530Z,94.39
2022-10-09T01:34:41.838Z,94.27
2022-10-09T01:37:11.766Z,94.20
2022-10-09T01:39:40.269Z,94.32
2022-10-09T01:42:09.968Z,94.43
2022-10-09T01:44:37.898Z,94.54
2022-10-09T01:47:06.194Z,94.48
2022-10-09T01:49:40.721Z,94.51
2022-10-09T01:52:25.111Z,94.64
2022-10-09T01:55:00.746Z,94.63
2022-10-09T01:57:33.888Z,94.84
2022-10-09T02:00:04.193Z,94.72
2022-10-09T02:02:32.451Z,94.91
2022-10-09T02:05:00.925Z,94.77
2022-10-09T02:07:29.518Z,94.70
2022-10-09T02:09:57.853Z,95.00
2022-10-09T02:12:28.029Z,94.71
2022-10-09T02:14:57.261Z,94.62
2022-10-09T02:17:28.068Z,94.94
2022-10-09T02:19:57.597Z,94.92
2022-10-09T02:22:27.314Z,94.71
2022-10-09T02:24:55.831Z,94.88
2022-10-09T02:27:24.003Z,94.95
2022-10-09T02:29:52.040Z,94.86
2022-10-09T02:32:21.310Z,94.90
2022-10-09T02:34:49.125Z,94.99
2022-10-09T02:37:20.969Z,94.92
2022-10-09T02:39:49.103Z,95.32
2022-10-09T02:42:16.954Z,95.14
2022-10-09T02:44:44.758Z,95.22
2022-10-09T02:47:12.523Z,95.38
2022-10-09T02:49:41.668Z,95.50
2022-10-09T02:52:09.628Z,95.56
2022-10-09T02:54:37.430Z,95.33
2022-10-09T02:57:05.231Z,95.46
2022-10-09T02:59:33.017Z,95.67
2022-10-09T03:02:00.888Z,95.49
2022-10-09T03:04:28.888Z,95.24
2022-10-09T03:06:58.015Z,95.23
2022-10-09T03:09:28.229Z,95.66
2022-10-09T03:11:59.449Z,95.33
2022-10-09T03:14:27.237Z,95.53
2022-10-09T03:16:55.021Z,95.43
2022-10-09T03:19:24.969Z,95.39
2022-10-09T03:21:52.781Z,95.61
2022-10-09T03:24:22.052Z,95.45
2022-10-09T03:26:49.845Z,95.52
2022-10-09T03:29:17.584Z,95.84
2022-10-09T03:31:52.345Z,95.81
2022-10-09T03:34:20.609Z,95.92
2022-10-09T03:36:48.411Z,95.55
2022-10-09T03:39:16.168Z,95.75
2022-10-09T03:41:45.271Z,95.50
2022-10-09T03:44:13.033Z,95.53
2022-10-09T03:46:41.002Z,95.55
2022-10-09T03:49:09.016Z,95.77
2022-10-09T03:51:36.802Z,95.78
2022-10-09T03:54:04.690Z,95.98
2022-10-09T03:56:32.503Z,96.10
2022-10-09T03:59:01.767Z,95.60
2022-10-09T04:01:29.615Z,95.91
2022-10-09T04:03:57.417Z,96.25
2022-10-09T04:06:25.304Z,96.10
2022-10-09T04:08:53.236Z,96.34
2022-10-09T04:11:21.217Z,95.85
2022-10-09T04:13:49.041Z,95.73
2022-10-09T04:16:18.236Z,96.32
2022-10-09T04:18:47.690Z,95.99
2022-10-09T04:21:15.560Z,96.20
2022-10-09T04:23:43.669Z,96.03
2022-10-09T04:26:12.419Z,95.96
2022-10-09T04:28:40.486Z,96.06
2022-10-09T04:31:08.479Z,95.94
2022-10-09T04:33:37.866Z,96.03
2022-10-09T04:36:05.801Z,95.88
2022-10-09T04:38:33.615Z,96.33
2022-10-09T04:41:03.100Z,96.36
2022-10-09T04:43:31.169Z,96.30
2022-10-09T04:45:58.985Z,96.27
2022-10-09T04:48:26.871Z,96.08
2022-10-09T04:50:56.060Z,96.45
2022-10-09T04:53:24.032Z,96.06
2022-10-09T04:55:51.803Z,95.99
2022-10-09T04:58:19.590Z,96.15
2022-10-09T05:00:47.784Z,96.55
2022-10-09T05:03:15.633Z,96.36
2022-10-09T05:05:43.685Z,96.47
2022-10-09T05:08:12.786Z,96.07
2022-10-09T05:10:40.578Z,96.18
2022-10-09T05:13:08.336Z,96.49
2022-10-09T05:15:37.080Z,96.49
2022-10-09T05:18:05.158Z,96.25
2022-10-09T05:20:32.973Z,96.10
2022-10-09T05:23:00.776Z,96.24
2022-10-09T05:25:29.885Z,96.11
2022-10-09T05:27:57.673Z,96.15
2022-10-09T05:30:25.628Z,96.19
2022-10-09T05:32:53.406Z,96.29
2022-10-09T05:35:21.233Z,96.64
2022-10-09T05:37:48.999Z,96.17
2022-10-09T05:40:16.809Z,96.29
2022-10-09T05:42:46.290Z,96.45
2022-10-09T05:45:14.358Z,96.12
2022-10-09T05:47:42.128Z,96.25
2022-10-09T05:50:10.354Z,96.69
2022-10-09T05:52:39.887Z,96.23
2022-10-09T05:55:08.069Z,96.42
2022-10-09T05:57:35.848Z,96.46
2022-10-09T06:00:05.475Z,96.35
2022-10-09T06:02:33.303Z,96.38
2022-10-09T06:05:01.113Z,96.35
2022-10-09T06:07:29.050Z,96.75
2022-10-09T06:09:56.827Z,96.62
2022-10-09T06:12:24.737Z,96.91
2022-10-09T06:14:52.498Z,96.60
2022-10-09T06:17:22.758Z,96.63
2022-10-09T06:19:50.716Z,96.73
2022-10-09T06:22:18.650Z,96.99
2022-10-09T06:24:46.419Z,96.58
2022-10-09T06:27:21.814Z,96.86
2022-10-09T06:29:49.623Z,97.33
2022-10-09T06:32:17.421Z,97.58
2022-10-09T06:34:46.542Z,95.52
2022-10-09T06:37:14.392Z,88.31
2022-10-09T06:39:42.318Z,88.43
2022-10-09T06:42:12.075Z,81.76
2022-10-09T06:44:39.885Z,70.01
2022-10-09T06:47:07.752Z,65.23
2022-10-09T06:49:35.511Z,62.04
2022-10-09T06:52:04.823Z,57.97
2022-10-09T06:54:32.572Z,56.44
2022-10-09T06:57:00.341Z,52.26
2022-10-09T06:59:28.183Z,56.78
2022-10-09T07:01:56.924Z,47.02
2022-10-09T07:04:25.033Z,48.33
2022-10-09T07:06:52.851Z,47.65
2022-10-09T07:09:22.001Z,47.47
2022-10-09T07:11:49.971Z,46.19
2022-10-09T07:14:18.032Z,45.10
2022-10-09T07:16:46.750Z,44.31
2022-10-09T07:19:15.032Z,42.35
2022-10-09T07:21:43.781Z,42.62
2022-10-09T07:24:12.298Z,41.72
2022-10-09T07:26:42.498Z,40.73
2022-10-09T07:29:11.402Z,41.36
2022-10-09T07:31:39.426Z,39.31
2022-10-09T07:34:07.253Z,38.91
2022-10-09T07:36:35.345Z,39.15
2022-10-09T07:39:03.842Z,38.13
2022-10-09T07:41:31.828Z,38.62
2022-10-09T07:44:00.982Z,38.23
2022-10-09T07:46:33.486Z,37.96
2022-10-09T07:49:02.088Z,37.56
2022-10-09T07:51:30.461Z,37.68
2022-10-09T07:53:59.928Z,38.63
2022-10-09T07:56:29.007Z,39.91
2022-10-09T07:58:57.828Z,38.02
2022-10-09T08:01:28.026Z,36.66
2022-10-09T08:03:56.090Z,38.09
2022-10-09T08:06:23.984Z,36.70
2022-10-09T08:08:52.271Z,36.17
2022-10-09T08:11:20.470Z,37.21
2022-10-09T08:13:48.925Z,35.29
2022-10-09T08:16:17.314Z,35.52
2022-10-09T08:18:46.878Z,33.61
2022-10-09T08:21:15.974Z,34.09
2022-10-09T08:23:44.010Z,34.44
2022-10-09T08:26:15.397Z,35.29
2022-10-09T08:28:43.820Z,36.19
2022-10-09T08:31:12.252Z,32.16
2022-10-09T08:33:40.197Z,31.00
2022-10-09T08:36:11.174Z,29.58
2022-10-09T08:38:48.194Z,29.90
2022-10-09T08:43:48.265Z,33.03
2022-10-09T08:46:21.175Z,31.42
2022-10-09T08:48:50.163Z,30.83
2022-10-09T08:51:22.623Z,33.40
2022-10-09T08:53:54.342Z,34.22
2022-10-09T08:56:23.624Z,29.94
2022-10-09T08:58:51.411Z,27.97
2022-10-09T09:01:23.021Z,30.75
2022-10-09T09:04:09.828Z,30.84
2022-10-09T09:06:41.729Z,29.06
2022-10-09T09:09:13.724Z,28.16
2022-10-09T09:11:45.599Z,25.98
2022-10-09T09:14:20.635Z,29.06
2022-10-09T09:16:53.660Z,27.44
2022-10-09T09:19:35.427Z,29.80
2022-10-09T09:22:05.125Z,28.93
2022-10-09T09:24:34.778Z,28.79
2022-10-09T09:27:04.772Z,27.22
2022-10-09T09:29:37.932Z,29.18
2022-10-09T09:32:07.412Z,28.83
2022-10-09T09:34:37.948Z,27.60
2022-10-09T09:37:07.409Z,26.04
2022-10-09T09:40:30.923Z,24.17
2022-10-09T09:42:23.852Z,24.11
2022-10-09T09:44:57.193Z,26.01
2022-10-09T09:47:27.423Z,26.08
2022-10-09T09:49:56.317Z,27.62
2022-10-09T09:52:26.949Z,26.00
2022-10-09T09:54:56.851Z,24.45
2022-10-09T09:57:30.202Z,21.82
2022-10-09T10:00:07.514Z,20.48
2022-10-09T10:02:35.764Z,21.21
2022-10-09T10:05:15.397Z,20.69
2022-10-09T10:07:44.741Z,24.96
2022-10-09T10:10:18.712Z,22.53
2022-10-09T10:12:54.252Z,21.95
2022-10-09T10:15:23.952Z,20.64
2022-10-09T10:17:56.908Z,23.50
2022-10-09T10:20:25.465Z,19.03
2022-10-09T10:22:55.967Z,18.85
2022-10-09T10:25:26.895Z,20.78
2022-10-09T10:27:58.719Z,18.83
2022-10-09T10:30:26.955Z,19.82
2022-10-09T10:32:57.777Z,20.41
2022-10-09T10:35:27.510Z,18.70
2022-10-09T10:38:01.764Z,17.69
2022-10-09T10:40:32.683Z,19.93
2022-10-09T10:43:06.774Z,20.97
2022-10-09T10:45:38.336Z,21.68
2022-10-09T10:48:09.795Z,21.32
2022-10-09T10:50:42.898Z,20.83
2022-10-09T10:53:17.393Z,23.10
2022-10-09T10:55:50.000Z,20.85
2022-10-09T10:58:26.475Z,18.31
2022-10-09T11:00:59.090Z,18.21
2022-10-09T11:03:34.392Z,17.89
2022-10-09T11:06:06.300Z,18.57
2022-10-09T11:08:44.566Z,18.85
2022-10-09T11:11:15.252Z,17.35
2022-10-09T11:13:49.230Z,17.37
2022-10-09T11:16:22.854Z,16.34
2022-10-09T11:18:58.298Z,19.75
2022-10-09T11:21:34.707Z,18.88
2022-10-09T11:24:26.618Z,20.07
2022-10-09T11:27:03.179Z,19.02
2022-10-09T11:29:35.467Z,17.83
2022-10-09T11:32:10.345Z,20.45
2022-10-09T11:34:40.174Z,19.66
2022-10-09T11:37:12.289Z,18.74
2022-10-09T11:39:42.275Z,19.46
2022-10-09T11:42:11.085Z,17.83
2022-10-09T11:44:42.694Z,19.25
2022-10-09T11:47:15.064Z,17.34
2022-10-09T11:49:51.532Z,17.40
2022-10-09T11:52:21.861Z,19.06
2022-10-09T11:54:51.236Z,17.45
2022-10-09T11:57:27.428Z,19.38
2022-10-09T12:00:04.829Z,18.29
2022-10-09T12:02:32.863Z,17.63
2022-10-09T12:05:00.870Z,18.84
2022-10-09T12:07:30.525Z,17.54
2022-10-09T12:10:01.456Z,15.68
2022-10-09T12:12:29.682Z,17.24
2022-10-09T12:14:58.316Z,17.01
2022-10-09T12:17:34.890Z,19.12
2022-10-09T12:20:05.656Z,18.60
2022-10-09T12:22:35.775Z,20.26
2022-10-09T12:25:07.751Z,19.77
2022-10-09T12:27:37.557Z,16.79
2022-10-09T12:30:18.810Z,19.26
2022-10-09T12:32:48.671Z,18.40
2022-10-09T12:35:21.211Z,16.09
2022-10-09T12:37:49.155Z,17.06
2022-10-09T12:40:21.791Z,17.19
2022-10-09T12:42:51.547Z,18.81
2022-10-09T12:45:21.006Z,18.89
2022-10-09T12:47:49.005Z,17.85
2022-10-09T12:50:22.790Z,16.82
2022-10-09T12:52:51.942Z,18.68
2022-10-09T12:55:24.781Z,19.45
2022-10-09T12:57:53.765Z,18.16
2022-10-09T13:00:21.604Z,19.12
2022-10-09T13:02:49.848Z,19.85
2022-10-09T13:05:18.298Z,21.27
2022-10-09T13:07:51.511Z,18.97
2022-10-09T13:10:20.461Z,17.11
2022-10-09T13:12:54.371Z,16.90
2022-10-09T13:15:31.010Z,19.69
2022-10-09T13:17:58.990Z,20.50
2022-10-09T13:20:28.589Z,19.84
2022-10-09T13:22:57.060Z,20.90
2022-10-09T13:25:25.192Z,21.58
2022-10-09T13:27:54.582Z,20.14
2022-10-09T13:30:22.697Z,20.64
2022-10-09T13:32:50.711Z,21.37
2022-10-09T13:35:18.498Z,20.82
2022-10-09T13:37:46.381Z,20.34
2022-10-09T13:40:15.714Z,19.92
2022-10-09T13:42:43.887Z,21.88
2022-10-09T13:45:13.222Z,20.62
2022-10-09T13:47:41.068Z,23.43
2022-10-09T13:50:10.420Z,23.44
2022-10-09T13:55:11.766Z,23.86
2022-10-09T13:57:40.003Z,27.37
2022-10-09T14:00:09.769Z,29.54
2022-10-09T14:02:39.068Z,28.05
2022-10-09T14:05:07.230Z,25.55
2022-10-09T14:07:35.034Z,25.49
2022-10-09T14:10:03.710Z,26.31
2022-10-09T14:12:31.637Z,26.70
2022-10-09T14:14:59.458Z,26.56
2022-10-09T14:17:27.318Z,26.14
2022-10-09T14:19:56.849Z,26.47
2022-10-09T14:22:24.820Z,27.44
2022-10-09T14:24:52.645Z,27.54
2022-10-09T14:27:20.686Z,29.38
2022-10-09T14:29:49.749Z,31.70
2022-10-09T14:32:19.263Z,31.67
2022-10-09T14:34:47.967Z,34.24
2022-10-09T14:37:29.765Z,35.50
2022-10-09T14:40:05.652Z,35.51
2022-10-09T14:42:33.540Z,36.42
2022-10-09T14:45:01.322Z,36.01
2022-10-09T14:47:29.143Z,37.08
2022-10-09T14:49:56.956Z,37.21
2022-10-09T14:52:26.377Z,37.00
2022-10-09T14:54:54.143Z,37.42
2022-10-09T14:57:22.094Z,37.27
2022-10-09T14:59:49.918Z,38.30
2022-10-09T15:02:18.349Z,37.42
2022-10-09T15:04:46.672Z,37.88
2022-10-09T15:07:14.493Z,37.75
2022-10-09T15:09:46.434Z,38.32
2022-10-09T15:12:14.256Z,38.19
2022-10-09T15:14:42.058Z,37.89
2022-10-09T15:17:09.904Z,39.00
2022-10-09T15:19:37.674Z,38.31
2022-10-09T15:22:06.097Z,38.62
2022-10-09T15:24:33.878Z,39.08
2022-10-09T15:27:03.069Z,38.91
2022-10-09T15:29:30.867Z,39.71
2022-10-09T15:31:58.682Z,39.77
2022-10-09T15:34:26.812Z,39.72
2022-10-09T15:36:54.617Z,39.91
2022-10-09T15:39:23.532Z,39.79
2022-10-09T15:41:51.319Z,40.63
2022-10-09T15:44:20.959Z,40.92
2022-10-09T15:46:49.531Z,41.25
2022-10-09T15:49:17.345Z,41.39
2022-10-09T15:51:45.186Z,41.73
2022-10-09T15:54:14.635Z,42.32
2022-10-09T15:56:42.477Z,42.30
2022-10-09T15:59:12.497Z,42.89
2022-10-09T16:01:41.697Z,43.15
2022-10-09T16:04:09.529Z,43.59
2022-10-09T16:06:37.583Z,44.11
2022-10-09T16:09:05.539Z,44.32
2022-10-09T16:11:34.808Z,44.57
2022-10-09T16:14:02.637Z,44.73
2022-10-09T16:16:30.417Z,45.88
2022-10-09T16:19:00.703Z,45.91
2022-10-09T16:21:29.562Z,46.23
2022-10-09T16:23:59.449Z,46.53
2022-10-09T16:26:28.489Z,48.24
2022-10-09T16:28:56.337Z,49.00
2022-10-09T16:31:25.861Z,49.25
2022-10-09T16:33:53.905Z,49.73
2022-10-09T16:36:23.250Z,50.07
2022-10-09T16:38:51.008Z,50.79
2022-10-09T16:41:19.652Z,51.34
2022-10-09T16:43:48.282Z,52.38
2022-10-09T16:46:18.333Z,52.61
2022-10-09T16:48:46.715Z,53.68
2022-10-09T16:51:15.296Z,53.44
2022-10-09T16:53:44.532Z,56.10
2022-10-09T16:56:14.189Z,56.77
2022-10-09T16:58:42.612Z,57.86
2022-10-09T17:01:11.366Z,58.46
2022-10-09T17:03:40.545Z,58.82
2022-10-09T17:06:09.295Z,60.16
2022-10-09T17:08:37.185Z,59.93
2022-10-09T17:11:07.976Z,60.86
2022-10-09T17:13:36.265Z,60.55
2022-10-09T17:16:05.720Z,59.57
2022-10-09T17:18:33.799Z,60.56
2022-10-09T17:21:02.265Z,59.61
2022-10-09T17:23:30.289Z,59.02
2022-10-09T17:25:58.206Z,59.27
2022-10-09T17:28:27.612Z,58.62
2022-10-09T17:30:55.479Z,59.35
2022-10-09T17:33:23.301Z,59.98
2022-10-09T17:35:51.066Z,60.36
2022-10-09T17:38:18.860Z,61.05
2022-10-09T17:40:46.875Z,62.00
2022-10-09T17:43:14.778Z,61.44
2022-10-09T17:45:46.704Z,63.30
2022-10-09T17:48:14.645Z,63.42
2022-10-09T17:50:50.625Z,63.59
2022-10-09T17:53:19.080Z,64.91
2022-10-09T17:55:46.846Z,65.20
2022-10-09T17:58:14.656Z,65.08
2022-10-09T18:00:43.955Z,65.30
2022-10-09T18:03:11.809Z,66.00
2022-10-09T18:05:43.465Z,66.41
2022-10-09T18:08:11.798Z,66.44
2022-10-09T18:10:39.619Z,66.89
2022-10-09T18:13:07.964Z,66.96
2022-10-09T18:15:37.814Z,67.34
2022-10-09T18:18:07.296Z,68.22
2022-10-09T18:20:35.755Z,68.20
2022-10-09T18:23:03.610Z,68.45
2022-10-09T18:25:31.438Z,68.53
2022-10-09T18:27:59.399Z,68.54
2022-10-09T18:30:28.241Z,68.60
2022-10-09T18:32:56.244Z,69.20
2022-10-09T18:35:26.631Z,69.36
2022-10-09T18:37:54.554Z,68.93
2022-10-09T18:40:22.478Z,69.69
2022-10-09T18:42:50.638Z,69.59
2022-10-09T18:45:18.958Z,70.14
2022-10-09T18:47:46.865Z,69.98
2022-10-09T18:50:15.205Z,70.31
2022-10-09T18:52:44.413Z,70.14
2022-10-09T18:55:14.202Z,70.30
2022-10-09T18:57:42.556Z,70.29
2022-10-09T19:00:11.024Z,71.16
2022-10-09T19:05:08.177Z,69.80
2022-10-09T19:07:35.992Z,70.01
2022-10-09T19:10:06.801Z,69.89
2022-10-09T19:12:34.649Z,70.18
2022-10-09T19:15:02.527Z,70.33
2022-10-09T19:17:30.298Z,70.04
2022-10-09T19:19:58.084Z,69.53
2022-10-09T19:22:26.059Z,69.50
2022-10-09T19:24:53.829Z,70.82
2022-10-09T19:27:27.090Z,70.88
2022-10-09T19:29:55.450Z,71.23
2022-10-09T19:32:23.968Z,71.26
2022-10-09T19:34:52.279Z,71.91
2022-10-09T19:37:21.459Z,72.05
2022-10-09T19:39:50.726Z,72.61
2022-10-09T19:42:19.303Z,71.91
2022-10-09T19:44:48.492Z,72.28
2022-10-09T19:47:21.452Z,72.32
2022-10-09T19:49:49.507Z,73.29
2022-10-09T19:52:18.256Z,73.91
2022-10-09T19:54:46.055Z,74.24
2022-10-09T19:57:13.890Z,74.27
2022-10-09T19:59:41.784Z,74.99
2022-10-09T20:02:11.057Z,74.90
2022-10-09T20:04:38.854Z,74.84
2022-10-09T20:07:11.650Z,75.28
2022-10-09T20:09:40.637Z,74.76
2022-10-09T20:12:09.562Z,75.44
2022-10-09T20:14:37.487Z,74.85
2022-10-09T20:17:05.390Z,75.71
2022-10-09T20:19:34.549Z,75.38
2022-10-09T20:22:02.368Z,75.71
2022-10-09T20:24:30.210Z,75.89
2022-10-09T20:26:58.190Z,75.54
2022-10-09T20:29:27.145Z,76.10
2022-10-09T20:31:55.344Z,76.56
2022-10-09T20:34:26.990Z,76.06
2022-10-09T20:36:56.342Z,76.27
2022-10-09T20:39:24.365Z,76.14
2022-10-09T20:41:52.483Z,76.37
2022-10-09T20:44:20.481Z,76.27
2022-10-09T20:46:48.447Z,76.92
2022-10-09T20:49:16.703Z,76.97
2022-10-09T20:51:44.536Z,77.03
2022-10-09T20:54:16.536Z,76.59
2022-10-09T20:56:45.320Z,76.88
2022-10-09T20:59:13.769Z,77.20
2022-10-09T21:01:41.560Z,78.03
2022-10-09T21:04:11.043Z,77.95
2022-10-09T21:06:39.562Z,78.16
2022-10-09T21:09:07.631Z,77.92
2022-10-09T21:11:37.119Z,78.55
2022-10-09T21:14:04.892Z,78.26
2022-10-09T21:16:32.778Z,78.27
2022-10-09T21:19:02.378Z,78.52
2022-10-09T21:21:30.947Z,79.09
2022-10-09T21:23:59.594Z,79.26
2022-10-09T21:26:28.894Z,79.12
2022-10-09T21:28:59.881Z,79.85
2022-10-09T21:31:29.452Z,79.43
2022-10-09T21:33:57.825Z,80.08
2022-10-09T21:36:30.976Z,80.05
2022-10-09T21:38:59.460Z,80.18
2022-10-09T21:41:27.854Z,78.75
2022-10-09T21:43:55.760Z,78.64
2022-10-09T21:46:25.051Z,79.00
2022-10-09T21:48:52.896Z,79.25
2022-10-09T21:51:21.426Z,78.97
2022-10-09T21:53:50.018Z,79.05
2022-10-09T21:56:18.194Z,79.44
2022-10-09T21:58:48.955Z,78.63
2022-10-09T22:01:17.319Z,78.90
2022-10-09T22:03:46.925Z,78.89
2022-10-09T22:06:18.987Z,78.83
2022-10-09T22:08:47.815Z,79.04
2022-10-09T22:11:16.078Z,79.10
2022-10-09T22:13:44.090Z,79.77
2022-10-09T22:16:13.835Z,79.89
2022-10-09T22:18:42.034Z,80.26
2022-10-09T22:21:12.847Z,80.39
2022-10-09T22:23:40.982Z,80.44
2022-10-09T22:26:11.404Z,80.54
2022-10-09T22:28:39.415Z,79.93
2022-10-09T22:31:08.805Z,81.05
2022-10-09T22:33:38.696Z,81.10
2022-10-09T22:36:07.418Z,81.20
2022-10-09T22:38:37.298Z,81.19
2022-10-09T22:41:06.280Z,81.54
2022-10-09T22:43:34.384Z,81.62
2022-10-09T22:46:05.227Z,81.54
2022-10-09T22:48:34.957Z,81.34
2022-10-09T22:51:03.375Z,81.43
2022-10-09T22:53:31.358Z,81.23
2022-10-09T22:56:00.508Z,81.29
2022-10-09T22:58:28.305Z,81.64
2022-10-09T23:00:56.437Z,81.69
2022-10-09T23:03:24.260Z,81.98
2022-10-09T23:05:52.026Z,82.08
2022-10-09T23:08:19.872Z,81.94
2022-10-09T23:10:47.631Z,81.69
2022-10-09T23:13:16.971Z,81.34
2022-10-09T23:15:44.977Z,81.66
2022-10-09T23:18:12.757Z,82.32
2022-10-09T23:20:40.747Z,81.93
2022-10-09T23:23:08.657Z,82.22
2022-10-09T23:25:40.429Z,82.85
2022-10-09T23:28:08.517Z,82.73
2022-10-09T23:30:37.712Z,83.36
2022-10-09T23:33:05.496Z,83.30
2022-10-09T23:35:33.258Z,83.88
2022-10-09T23:38:01.098Z,83.36
2022-10-09T23:40:29.059Z,83.52
2022-10-09T23:42:56.851Z,83.80
2022-10-09T23:45:24.674Z,83.88
2022-10-09T23:47:53.829Z,83.73
2022-10-09T23:50:21.753Z,84.54
2022-10-09T23:52:49.851Z,84.35
2022-10-09T23:55:17.882Z,84.88
2022-10-09T23:57:45.726Z,84.78
